Rice, Texas
Current Conditions -  °F | °C
As of 12:53 PM on Thursday 27 Nov 2014 (Local Time) from KCRS Reporting Station
Clear Clear  
Wind Chill: 58°   Ceiling: Unl
Heat Index: 58°   Visibility: 10mi
Dew Point: 23°   Wind: 6mph
Humidity: 26%   Direction: NA
Pressure: 30.49"   Gusts: NA
Location:  32.24°N, 96.5°W
Report Text: KCRS 271853Z AUTO VRB05KT 10SM CLR 14/M05 A3049 RMK AO2 SLP323 T01441050
Loading
Personal Weather Stations






























Interactive Weather Map New forecast layout! Learn more

10-Day Weather Forecast

Advertisements
Track Severe Weather on mobile